Time;durP1;ratioP1;P1;durP2;ratioP2;P2;SDS_P1;SDS_P2;PMS_P1;PMS_P2;Temp;Humidity;BMP_temperature;BMP_pressure;BME280_temperature;BME280_humidity;BME280_pressure;Samples;Min_cycle;Max_cycle;Signal;HPM_P1;HPM_P2
2024/03/30 00:00:48;;;;;;;6.67;3.50;;;15.00;77.40;;;;;;5096253;28;20196;-69
2024/03/30 00:03:16;;;;;;;7.43;4.00;;;14.90;77.30;;;;;;5092874;28;20667;-69
2024/03/30 00:05:43;;;;;;;7.23;4.23;;;15.00;77.40;;;;;;5095216;28;20200;-69
2024/03/30 00:08:10;;;;;;;7.17;3.70;;;15.00;77.40;;;;;;5094211;28;20194;-69
2024/03/30 00:10:37;;;;;;;6.37;2.83;;;14.90;77.40;;;;;;5091877;28;20196;-69
2024/03/30 00:13:05;;;;;;;5.30;2.97;;;14.90;77.50;;;;;;5092625;28;20211;-68
2024/03/30 00:15:32;;;;;;;3.90;2.40;;;14.80;77.60;;;;;;5103972;28;20194;-68
2024/03/30 00:17:59;;;;;;;8.47;3.67;;;14.80;77.70;;;;;;5090186;28;20220;-68
2024/03/30 00:20:28;;;;;;;5.50;3.13;;;14.80;77.90;;;;;;5096090;28;20215;-67
2024/03/30 00:22:55;;;;;;;4.97;2.93;;;14.80;78.00;;;;;;5078930;28;20234;-68
2024/03/30 00:25:23;;;;;;;7.03;3.60;;;14.80;78.00;;;;;;5084016;28;20203;-68
2024/03/30 00:27:50;;;;;;;5.73;2.60;;;14.80;77.90;;;;;;5085613;28;20623;-69
2024/03/30 00:30:17;;;;;;;5.13;2.87;;;14.80;77.90;;;;;;5078008;28;20195;-69
2024/03/30 00:32:47;;;;;;;5.37;2.53;;;14.80;78.60;;;;;;5075273;28;20188;-67
2024/03/30 00:35:13;;;;;;;3.87;2.33;;;14.80;77.90;;;;;;5058098;28;20201;-68
2024/03/30 00:37:42;;;;;;;3.43;2.20;;;14.80;78.00;;;;;;5071685;28;20659;-69
2024/03/30 00:40:09;;;;;;;3.07;2.20;;;14.70;78.10;;;;;;5083919;28;20203;-69
2024/03/30 00:42:36;;;;;;;3.77;2.40;;;14.80;78.30;;;;;;5071547;28;20193;-69
2024/03/30 00:45:02;;;;;;;3.20;2.10;;;14.80;78.30;;;;;;5074785;28;20203;-69
2024/03/30 00:47:29;;;;;;;3.97;2.43;;;14.70;78.20;;;;;;5070227;28;20191;-68
2024/03/30 00:49:55;;;;;;;5.17;2.67;;;14.80;78.40;;;;;;5072628;28;20200;-68
2024/03/30 00:52:22;;;;;;;8.73;3.00;;;14.80;78.40;;;;;;5071309;28;20297;-67
2024/03/30 00:54:50;;;;;;;4.87;2.63;;;14.80;78.40;;;;;;5078402;28;20206;-69
2024/03/30 00:57:17;;;;;;;4.57;2.67;;;14.80;78.30;;;;;;5072994;28;20196;-68
2024/03/30 00:59:43;;;;;;;3.80;2.10;;;14.80;78.30;;;;;;5071658;28;20200;-68
2024/03/30 01:02:10;;;;;;;4.00;2.27;;;14.80;78.30;;;;;;5070408;28;20200;-69
2024/03/30 01:04:36;;;;;;;3.03;2.23;;;14.80;78.40;;;;;;5074995;28;20207;-69
2024/03/30 01:07:04;;;;;;;3.77;2.50;;;14.70;78.50;;;;;;5076805;28;20206;-69
2024/03/30 01:09:31;;;;;;;4.57;2.90;;;14.70;78.60;;;;;;5072911;28;20207;-69
2024/03/30 01:12:00;;;;;;;4.90;3.10;;;14.60;78.60;;;;;;5075870;28;20796;-68
2024/03/30 01:14:27;;;;;;;7.97;4.30;;;14.60;78.60;;;;;;5070449;28;20250;-68
2024/03/30 01:16:55;;;;;;;5.03;3.40;;;14.60;78.70;;;;;;5068891;28;20194;-69
2024/03/30 01:19:21;;;;;;;5.20;3.33;;;14.70;78.70;;;;;;5073096;28;20202;-69
2024/03/30 01:21:49;;;;;;;5.13;2.90;;;14.70;78.70;;;;;;5075087;28;20189;-69
2024/03/30 01:24:17;;;;;;;4.73;2.97;;;14.70;78.80;;;;;;5096293;28;20736;-68
2024/03/30 01:26:52;;;;;;;3.87;2.93;;;14.70;78.70;;;;;;5097708;28;20199;-68
2024/03/30 01:29:23;;;;;;;3.80;2.30;;;14.70;78.70;;;;;;5094987;28;20205;-69
2024/03/30 01:31:51;;;;;;;4.23;2.53;;;14.70;78.90;;;;;;5079465;28;20195;-69
2024/03/30 01:34:18;;;;;;;4.47;2.80;;;14.70;78.80;;;;;;5083476;28;20544;-68
2024/03/30 01:36:45;;;;;;;4.57;2.70;;;14.70;78.80;;;;;;5091817;28;20186;-68
2024/03/30 01:39:12;;;;;;;4.23;2.33;;;14.70;78.80;;;;;;5075085;28;20218;-68
2024/03/30 01:41:38;;;;;;;4.63;2.70;;;14.70;78.90;;;;;;5093565;28;20219;-68
2024/03/30 01:44:06;;;;;;;3.53;2.20;;;14.70;78.90;;;;;;5091285;28;20187;-68
2024/03/30 01:46:34;;;;;;;4.67;2.77;;;14.70;79.00;;;;;;5089721;28;20620;-68
2024/03/30 01:49:03;;;;;;;3.43;2.67;;;14.70;78.90;;;;;;5085281;28;20913;-67
2024/03/30 01:51:29;;;;;;;2.47;1.90;;;14.70;78.90;;;;;;5091590;28;20536;-68
2024/03/30 01:53:58;;;;;;;4.53;2.77;;;14.70;78.90;;;;;;5086780;28;20215;-68
2024/03/30 01:56:25;;;;;;;4.77;2.93;;;14.70;78.90;;;;;;5096320;28;20195;-69
2024/03/30 01:58:53;;;;;;;3.87;2.63;;;14.80;79.00;;;;;;5089228;28;20214;-68
2024/03/30 02:01:20;;;;;;;3.50;2.30;;;14.80;78.90;;;;;;5083070;28;20206;-68
2024/03/30 02:03:50;;;;;;;2.87;2.00;;;14.80;78.80;;;;;;5091341;28;20218;-69
2024/03/30 02:06:18;;;;;;;2.80;1.97;;;14.80;78.80;;;;;;5091996;28;20202;-68
2024/03/30 02:08:47;;;;;;;3.03;2.10;;;14.90;78.80;;;;;;5090918;28;20554;-68
2024/03/30 02:11:14;;;;;;;3.63;2.43;;;14.90;78.70;;;;;;5083111;28;20214;-68
2024/03/30 02:13:41;;;;;;;2.30;1.73;;;14.90;78.70;;;;;;5077983;28;20242;-67
2024/03/30 02:16:07;;;;;;;4.50;2.00;;;14.90;78.70;;;;;;5091406;28;20528;-68
2024/03/30 02:18:35;;;;;;;3.00;1.93;;;14.80;78.70;;;;;;5091580;28;20211;-69
2024/03/30 02:21:02;;;;;;;2.20;1.83;;;14.90;78.80;;;;;;5095417;28;20196;-69
2024/03/30 02:23:31;;;;;;;4.50;1.70;;;14.90;78.80;;;;;;5092683;28;20228;-70
2024/03/30 02:25:57;;;;;;;2.63;1.97;;;14.90;78.90;;;;;;5107640;28;20191;-69
2024/03/30 02:28:27;;;;;;;2.00;1.80;;;14.90;79.70;;;;;;5084523;28;20202;-69
2024/03/30 02:30:53;;;;;;;6.63;2.77;;;14.90;79.10;;;;;;5092338;28;20203;-69
2024/03/30 02:33:21;;;;;;;3.53;2.37;;;14.90;79.50;;;;;;5073565;28;20246;-68
2024/03/30 02:35:48;;;;;;;3.77;2.43;;;14.80;79.70;;;;;;5092601;28;20666;-68
2024/03/30 02:38:15;;;;;;;3.20;2.43;;;14.80;79.80;;;;;;5074236;28;20194;-69
2024/03/30 02:40:48;;;;;;;7.10;3.17;;;14.70;79.90;;;;;;5093950;28;20195;-68
2024/03/30 02:43:14;;;;;;;3.47;2.77;;;14.60;79.90;;;;;;5092006;28;20215;-68
2024/03/30 02:45:42;;;;;;;3.40;2.40;;;14.60;80.00;;;;;;5097363;28;20244;-68
2024/03/30 02:48:08;;;;;;;4.47;2.37;;;14.60;80.00;;;;;;5089191;28;20575;-68
2024/03/30 02:50:35;;;;;;;5.67;2.40;;;14.60;80.00;;;;;;5101191;28;20200;-68
2024/03/30 02:53:01;;;;;;;4.00;2.40;;;14.60;80.10;;;;;;5096714;28;20204;-68
2024/03/30 02:55:28;;;;;;;2.77;2.10;;;14.60;80.10;;;;;;5097039;28;20195;-68
2024/03/30 02:57:56;;;;;;;2.33;2.13;;;14.50;80.20;;;;;;5097385;28;20200;-68
2024/03/30 03:00:23;;;;;;;2.30;2.10;;;14.50;80.30;;;;;;5106043;28;20285;-67
2024/03/30 03:02:52;;;;;;;2.23;1.80;;;14.40;80.20;;;;;;5078830;28;20547;-68
2024/03/30 03:05:19;;;;;;;1.90;1.70;;;14.50;80.40;;;;;;5101551;28;20523;-68
2024/03/30 03:07:45;;;;;;;5.57;1.93;;;14.40;80.50;;;;;;5100301;28;20202;-68
2024/03/30 03:10:12;;;;;;;1.97;1.40;;;14.40;81.40;;;;;;5103292;28;20270;-68
2024/03/30 03:12:38;;;;;;;2.53;1.70;;;14.40;80.70;;;;;;5091785;28;20660;-68
2024/03/30 03:15:07;;;;;;;2.03;1.73;;;14.40;80.70;;;;;;5097831;28;20233;-68
2024/03/30 03:17:35;;;;;;;3.63;2.03;;;14.50;80.70;;;;;;5094254;28;20206;-68
2024/03/30 03:20:05;;;;;;;1.87;1.70;;;14.50;80.80;;;;;;5098009;28;20502;-68
2024/03/30 03:22:32;;;;;;;1.70;1.60;;;14.40;80.90;;;;;;5100751;28;20284;-68
2024/03/30 03:24:59;;;;;;;1.70;1.60;;;14.40;81.10;;;;;;5093160;28;20198;-69
2024/03/30 03:27:25;;;;;;;1.70;1.60;;;14.40;81.10;;;;;;5092207;28;20248;-69
2024/03/30 03:29:52;;;;;;;1.70;1.60;;;14.40;81.20;;;;;;5084685;28;20264;-69
2024/03/30 03:32:19;;;;;;;1.77;1.40;;;14.50;81.20;;;;;;5092660;28;20199;-69
2024/03/30 03:34:46;;;;;;;2.10;1.50;;;14.50;81.30;;;;;;5091446;28;20214;-69
2024/03/30 03:37:13;;;;;;;1.57;1.40;;;14.50;81.30;;;;;;5092775;28;20829;-69
2024/03/30 03:39:40;;;;;;;1.90;1.70;;;14.50;81.30;;;;;;5075110;28;20203;-69
2024/03/30 03:42:06;;;;;;;1.57;1.40;;;14.50;81.40;;;;;;5096318;28;20203;-68
2024/03/30 03:44:33;;;;;;;2.07;1.60;;;14.50;81.40;;;;;;5092757;28;20555;-68
2024/03/30 03:46:59;;;;;;;2.10;1.90;;;14.50;81.40;;;;;;5093799;28;20199;-69
2024/03/30 03:49:28;;;;;;;2.00;1.50;;;14.50;81.50;;;;;;5075480;28;20215;-68
2024/03/30 03:51:55;;;;;;;3.07;1.70;;;14.50;81.50;;;;;;5093182;28;20250;-69
2024/03/30 03:54:22;;;;;;;2.00;1.90;;;14.50;81.60;;;;;;5092607;28;20749;-69
2024/03/30 03:56:49;;;;;;;2.37;1.60;;;14.50;81.70;;;;;;5093186;28;20204;-69
2024/03/30 03:59:16;;;;;;;1.40;1.30;;;14.60;81.80;;;;;;5082898;28;20221;-69
2024/03/30 04:01:42;;;;;;;1.53;1.43;;;14.60;81.80;;;;;;5097751;28;20200;-68
2024/03/30 04:04:09;;;;;;;2.13;1.50;;;14.60;81.80;;;;;;5101063;28;20188;-69
2024/03/30 04:06:36;;;;;;;1.37;1.10;;;14.60;81.90;;;;;;5097387;28;20214;-69
2024/03/30 04:09:04;;;;;;;1.40;1.20;;;14.60;81.90;;;;;;5091159;28;20196;-69
2024/03/30 04:11:30;;;;;;;1.33;1.23;;;14.60;82.00;;;;;;5075124;28;20211;-68
2024/03/30 04:13:58;;;;;;;1.03;1.03;;;14.60;82.10;;;;;;5078917;28;20243;-69
2024/03/30 04:16:25;;;;;;;1.40;1.30;;;14.60;82.10;;;;;;5099873;28;20530;-69
2024/03/30 04:18:52;;;;;;;1.63;1.00;;;14.60;82.20;;;;;;5076330;28;20192;-69
2024/03/30 04:21:19;;;;;;;1.97;1.20;;;14.60;82.30;;;;;;5091866;28;20221;-69
2024/03/30 04:23:50;;;;;;;2.27;1.33;;;14.60;82.50;;;;;;5091767;28;20236;-68
2024/03/30 04:26:18;;;;;;;1.73;1.50;;;14.50;83.40;;;;;;5092463;28;20222;-68
2024/03/30 04:28:45;;;;;;;4.50;2.03;;;14.50;82.80;;;;;;5087365;28;20651;-68
2024/03/30 04:31:12;;;;;;;1.87;1.57;;;14.50;83.10;;;;;;5089744;28;20219;-68
2024/03/30 04:33:39;;;;;;;1.87;1.63;;;14.50;83.10;;;;;;5093764;28;20216;-67
2024/03/30 04:36:06;;;;;;;3.47;1.90;;;14.50;83.20;;;;;;5087763;28;20199;-68
2024/03/30 04:38:35;;;;;;;2.43;2.07;;;14.50;83.30;;;;;;5092698;28;20194;-68
2024/03/30 04:41:04;;;;;;;5.60;3.40;;;14.50;83.40;;;;;;5088085;28;20199;-69
2024/03/30 04:43:31;;;;;;;16.73;6.30;;;14.50;83.70;;;;;;5074645;28;20686;-69
2024/03/30 04:46:00;;;;;;;15.70;6.63;;;14.40;83.90;;;;;;5097410;28;20193;-69
2024/03/30 04:48:30;;;;;;;12.93;6.07;;;14.40;84.00;;;;;;5095664;28;20240;-69
2024/03/30 04:50:59;;;;;;;9.70;5.03;;;14.30;84.20;;;;;;5102771;28;20593;-68
2024/03/30 04:53:28;;;;;;;7.80;5.03;;;14.30;84.50;;;;;;5093390;28;20203;-68
2024/03/30 04:55:57;;;;;;;7.67;4.17;;;14.20;84.50;;;;;;5094546;28;20528;-68
2024/03/30 04:58:25;;;;;;;10.20;5.13;;;14.00;84.60;;;;;;5090237;28;20675;-67
2024/03/30 05:00:54;;;;;;;10.03;4.77;;;14.00;85.20;;;;;;5095720;28;20339;-68
2024/03/30 05:03:20;;;;;;;8.70;4.60;;;14.00;85.50;;;;;;5096353;28;20311;-67
2024/03/30 05:05:49;;;;;;;5.60;4.20;;;14.00;85.70;;;;;;5090055;28;20217;-68
2024/03/30 05:08:15;;;;;;;7.23;4.07;;;14.00;85.80;;;;;;5095475;28;20224;-67
2024/03/30 05:10:43;;;;;;;7.90;4.13;;;13.90;85.80;;;;;;5101042;28;20672;-68
2024/03/30 05:13:09;;;;;;;7.20;3.70;;;13.90;85.90;;;;;;5089227;28;20213;-68
2024/03/30 05:15:39;;;;;;;5.43;3.37;;;13.90;86.10;;;;;;5086935;28;20237;-68
2024/03/30 05:18:06;;;;;;;5.53;3.17;;;13.90;86.10;;;;;;5090245;28;20198;-67
2024/03/30 05:20:53;;;;;;;6.40;3.73;;;13.90;86.20;;;;;;5089213;28;20569;-68
2024/03/30 05:23:20;;;;;;;7.03;4.07;;;13.90;86.60;;;;;;5075138;28;20701;-68
2024/03/30 05:25:48;;;;;;;6.63;3.10;;;13.80;86.70;;;;;;5091677;28;20290;-69
2024/03/30 05:28:16;;;;;;;3.50;2.73;;;13.80;86.90;;;;;;5092721;28;20230;-68
2024/03/30 05:30:44;;;;;;;2.97;2.50;;;13.80;86.90;;;;;;5073769;28;20181;-69
2024/03/30 05:33:11;;;;;;;3.53;2.30;;;13.80;86.90;;;;;;5073969;28;20207;-69
2024/03/30 05:35:39;;;;;;;2.80;2.13;;;13.90;87.10;;;;;;5069460;28;20211;-69
2024/03/30 05:38:05;;;;;;;2.30;1.93;;;14.00;87.10;;;;;;5096499;28;20641;-68
2024/03/30 05:40:33;;;;;;;4.53;1.90;;;14.00;87.00;;;;;;5086571;28;20201;-69
2024/03/30 05:42:59;;;;;;;6.77;3.30;;;14.00;87.10;;;;;;5089306;28;20699;-69
2024/03/30 05:45:27;;;;;;;6.57;3.60;;;14.10;87.40;;;;;;5091195;28;20224;-69
2024/03/30 05:47:55;;;;;;;5.63;3.10;;;14.10;87.30;;;;;;5091314;28;20203;-68
2024/03/30 05:50:22;;;;;;;5.10;3.10;;;14.00;87.20;;;;;;5094297;28;20650;-69
2024/03/30 05:52:49;;;;;;;6.23;3.00;;;14.10;87.50;;;;;;5097965;28;20224;-69
2024/03/30 05:55:16;;;;;;;4.10;2.83;;;14.10;87.40;;;;;;5073978;28;20236;-68
2024/03/30 05:57:44;;;;;;;10.17;3.23;;;14.00;87.50;;;;;;5100474;28;20587;-68
2024/03/30 06:00:12;;;;;;;5.97;3.60;;;14.00;87.80;;;;;;5078704;28;20207;-68
2024/03/30 06:02:43;;;;;;;4.03;3.13;;;14.00;87.90;;;;;;5090640;28;20198;-68
2024/03/30 06:05:12;;;;;;;3.43;2.63;;;14.00;87.80;;;;;;5091511;28;20527;-67
2024/03/30 06:07:40;;;;;;;4.33;2.60;;;14.00;87.90;;;;;;5072119;28;20560;-68
2024/03/30 06:10:07;;;;;;;3.43;2.70;;;14.00;87.90;;;;;;5101903;28;20210;-68
2024/03/30 06:12:35;;;;;;;2.73;2.07;;;14.10;87.90;;;;;;5081875;28;20188;-68
2024/03/30 06:15:01;;;;;;;2.40;2.00;;;14.10;87.90;;;;;;5085563;28;20588;-68
2024/03/30 06:17:28;;;;;;;4.60;2.00;;;14.10;88.00;;;;;;5095554;28;20188;-68
2024/03/30 06:19:55;;;;;;;3.27;2.37;;;14.20;88.20;;;;;;5087716;28;20203;-68
2024/03/30 06:22:26;;;;;;;4.00;2.23;;;14.20;88.20;;;;;;5075473;28;20259;-68
2024/03/30 06:24:52;;;;;;;7.23;2.50;;;14.20;88.10;;;;;;5098244;28;20187;-68
2024/03/30 06:27:19;;;;;;;4.43;2.80;;;14.20;88.10;;;;;;5098037;28;20290;-68
2024/03/30 06:29:46;;;;;;;4.10;2.83;;;14.20;88.10;;;;;;5093649;28;20205;-68
2024/03/30 06:32:13;;;;;;;8.67;4.50;;;14.30;88.30;;;;;;5074759;28;20540;-68
2024/03/30 06:34:39;;;;;;;11.07;5.00;;;14.40;88.40;;;;;;5101663;28;20391;-68
2024/03/30 06:37:06;;;;;;;12.23;5.70;;;14.40;89.00;;;;;;5099674;28;20222;-68
2024/03/30 06:45:01;;;;;;;4.93;3.47;;;14.50;88.30;;;;;;5102480;28;20194;-68
2024/03/30 06:47:28;;;;;;;5.57;3.57;;;14.50;88.30;;;;;;5105709;28;20199;-68
2024/03/30 06:49:55;;;;;;;3.93;3.30;;;14.40;88.40;;;;;;5101512;28;20195;-68
2024/03/30 06:52:22;;;;;;;10.27;5.50;;;14.40;88.70;;;;;;5074517;28;20213;-68
2024/03/30 06:54:51;;;;;;;11.03;5.87;;;14.50;89.10;;;;;;5106223;28;20204;-68
2024/03/30 06:57:17;;;;;;;8.33;4.53;;;14.50;89.10;;;;;;5097177;28;20194;-68
2024/03/30 06:59:45;;;;;;;9.87;4.67;;;14.70;89.20;;;;;;5096604;28;20226;-69
2024/03/30 07:02:11;;;;;;;7.40;4.40;;;14.70;89.20;;;;;;5100266;28;20194;-68
2024/03/30 07:04:39;;;;;;;13.57;7.20;;;14.80;89.30;;;;;;5082357;28;20666;-67
2024/03/30 07:07:05;;;;;;;12.80;7.50;;;14.90;89.20;;;;;;5075191;28;20199;-69
2024/03/30 07:09:32;;;;;;;14.23;7.67;;;15.00;89.10;;;;;;5094133;28;20182;-69
2024/03/30 07:11:59;;;;;;;12.23;6.63;;;15.10;89.10;;;;;;5090898;28;20203;-69
2024/03/30 07:14:27;;;;;;;10.60;5.87;;;15.10;89.00;;;;;;5088172;28;20685;-69
2024/03/30 07:16:55;;;;;;;13.20;5.70;;;15.30;89.00;;;;;;5090572;28;20196;-68
2024/03/30 07:19:23;;;;;;;7.67;4.47;;;15.40;88.90;;;;;;5094791;28;20192;-68
2024/03/30 07:21:49;;;;;;;6.17;4.00;;;15.50;88.70;;;;;;5092329;28;20585;-68
2024/03/30 07:24:17;;;;;;;4.87;3.33;;;15.60;88.70;;;;;;5093476;28;20238;-68
2024/03/30 07:26:44;;;;;;;6.00;4.20;;;15.70;88.60;;;;;;5085551;28;20199;-68
2024/03/30 07:29:12;;;;;;;7.90;4.30;;;15.80;88.60;;;;;;5089035;28;20639;-68
2024/03/30 07:31:38;;;;;;;6.40;3.67;;;15.90;88.30;;;;;;5094987;28;20188;-68
2024/03/30 07:34:06;;;;;;;6.50;3.70;;;16.00;87.90;;;;;;5097924;28;20187;-68
2024/03/30 07:36:32;;;;;;;5.10;3.67;;;16.20;87.60;;;;;;5097952;28;20192;-68
2024/03/30 07:38:59;;;;;;;4.57;3.20;;;16.20;87.40;;;;;;5079204;28;20200;-68
2024/03/30 07:41:25;;;;;;;4.93;3.20;;;16.30;87.40;;;;;;5098282;28;20250;-68
2024/03/30 07:43:52;;;;;;;3.10;2.60;;;16.50;87.30;;;;;;5106617;28;20224;-68
2024/03/30 07:46:20;;;;;;;3.43;2.43;;;16.60;87.00;;;;;;5097549;28;20189;-68
2024/03/30 07:48:47;;;;;;;2.23;2.00;;;16.70;86.90;;;;;;5082590;28;20287;-68
2024/03/30 07:51:13;;;;;;;2.40;2.20;;;16.80;86.90;;;;;;5098139;28;20614;-69
2024/03/30 07:53:40;;;;;;;1.93;1.73;;;16.90;86.90;;;;;;5101088;28;20203;-69
2024/03/30 07:56:06;;;;;;;2.57;1.70;;;17.00;86.80;;;;;;5103236;28;20219;-68
2024/03/30 07:58:36;;;;;;;1.57;1.40;;;17.10;86.30;;;;;;5097566;28;20189;-68
2024/03/30 08:01:05;;;;;;;1.73;1.63;;;17.30;86.20;;;;;;5099443;28;20200;-69
2024/03/30 08:03:34;;;;;;;2.20;1.70;;;17.40;85.90;;;;;;5090338;28;20181;-69
2024/03/30 08:06:00;;;;;;;1.93;1.67;;;17.50;85.50;;;;;;5100495;28;20184;-69
2024/03/30 08:08:28;;;;;;;3.40;1.87;;;17.70;84.70;;;;;;5094294;28;20224;-69
2024/03/30 08:10:54;;;;;;;4.63;2.37;;;18.00;84.00;;;;;;5094198;28;20196;-69
2024/03/30 08:13:21;;;;;;;3.63;2.10;;;18.20;82.00;;;;;;5085883;28;20210;-69
2024/03/30 08:15:48;;;;;;;2.10;1.70;;;18.50;81.40;;;;;;5095923;28;20297;-68
2024/03/30 08:18:15;;;;;;;4.68;2.30;;;18.80;80.90;;;;;;5087099;28;20214;-69
2024/03/30 08:20:44;;;;;;;6.07;2.85;;;19.00;79.20;;;;;;5101436;28;20198;-69
2024/03/30 08:23:11;;;;;;;4.57;2.33;;;19.20;77.90;;;;;;5094912;28;20305;-69
2024/03/30 08:25:37;;;;;;;2.83;2.05;;;19.40;77.00;;;;;;5095858;28;20218;-68
2024/03/30 08:28:05;;;;;;;1.95;1.58;;;19.60;77.10;;;;;;5093972;28;20184;-69
2024/03/30 08:30:31;;;;;;;2.53;1.30;;;19.90;77.00;;;;;;5092114;28;20501;-68
2024/03/30 08:32:58;;;;;;;1.40;1.30;;;20.10;76.80;;;;;;5098636;28;20241;-68
2024/03/30 08:35:24;;;;;;;1.58;1.48;;;20.40;75.80;;;;;;5091715;28;20204;-68
2024/03/30 08:37:53;;;;;;;3.13;2.15;;;20.70;75.60;;;;;;5091173;28;20176;-70
2024/03/30 08:40:19;;;;;;;2.25;1.90;;;20.90;74.10;;;;;;5105309;28;20229;-69
2024/03/30 08:42:46;;;;;;;2.10;1.90;;;21.00;72.80;;;;;;5092344;28;20517;-69
2024/03/30 08:45:12;;;;;;;1.83;1.73;;;21.20;72.60;;;;;;5104379;28;20231;-69
2024/03/30 08:47:40;;;;;;;4.45;2.63;;;21.50;72.10;;;;;;5089009;28;20273;-68
2024/03/30 08:50:06;;;;;;;2.50;2.30;;;21.70;69.20;;;;;;5094086;28;20207;-68
2024/03/30 08:52:33;;;;;;;3.05;2.20;;;21.70;68.70;;;;;;5092980;28;20201;-68
2024/03/30 08:55:01;;;;;;;2.90;1.60;;;21.90;68.40;;;;;;5095044;28;20621;-67
2024/03/30 08:57:28;;;;;;;1.50;1.40;;;22.00;68.00;;;;;;5076977;28;20192;-69
2024/03/30 08:59:54;;;;;;;1.48;1.38;;;22.20;67.80;;;;;;5092545;28;20242;-68
2024/03/30 09:02:21;;;;;;;1.65;1.55;;;22.30;67.90;;;;;;5092819;28;20176;-69
2024/03/30 09:04:48;;;;;;;1.83;1.50;;;22.50;67.90;;;;;;5090986;28;20203;-69
2024/03/30 09:07:15;;;;;;;3.80;1.90;;;22.60;66.90;;;;;;5089883;28;20184;-68
2024/03/30 09:09:42;;;;;;;1.67;1.52;;;22.60;66.00;;;;;;5074790;28;20200;-69
2024/03/30 09:12:10;;;;;;;1.70;1.50;;;22.70;65.70;;;;;;5091292;28;20586;-68
2024/03/30 09:14:36;;;;;;;1.55;1.38;;;22.70;66.00;;;;;;5092018;28;20213;-69
2024/03/30 09:17:05;;;;;;;1.40;1.30;;;22.80;66.10;;;;;;5091509;28;20544;-68
2024/03/30 09:19:31;;;;;;;1.30;1.20;;;22.90;66.00;;;;;;5092309;28;20723;-69
2024/03/30 09:21:58;;;;;;;1.60;1.50;;;22.90;65.50;;;;;;5090745;28;20281;-69
2024/03/30 09:24:24;;;;;;;1.30;1.20;;;23.00;64.70;;;;;;5090909;28;20235;-69
2024/03/30 09:26:52;;;;;;;1.67;1.52;;;23.10;64.90;;;;;;5092941;28;20263;-69
2024/03/30 09:29:19;;;;;;;1.50;1.40;;;23.30;64.70;;;;;;5088387;28;20200;-69
2024/03/30 09:31:46;;;;;;;1.40;1.30;;;23.40;64.50;;;;;;5076057;28;20560;-69
2024/03/30 09:34:12;;;;;;;1.17;1.17;;;23.50;64.30;;;;;;5095316;28;20283;-69
2024/03/30 09:36:40;;;;;;;2.45;1.80;;;23.60;64.20;;;;;;5103115;28;20208;-69
2024/03/30 09:39:06;;;;;;;1.60;1.50;;;23.70;61.60;;;;;;5094013;28;20196;-69
2024/03/30 09:41:46;;;;;;;2.20;1.90;;;23.70;61.90;;;;;;5100253;28;20648;-69
2024/03/30 09:44:12;;;;;;;1.63;1.50;;;23.80;60.20;;;;;;5090477;28;20204;-69
2024/03/30 09:46:43;;;;;;;1.70;1.60;;;23.90;60.60;;;;;;5090783;28;20192;-69
2024/03/30 09:49:10;;;;;;;2.13;1.40;;;24.00;61.40;;;;;;5088502;28;20193;-69
2024/03/30 09:51:39;;;;;;;2.55;2.35;;;24.20;60.60;;;;;;5090700;28;20263;-68
2024/03/30 09:54:06;;;;;;;4.43;2.33;;;24.20;58.90;;;;;;5096866;28;20200;-68
2024/03/30 09:56:35;;;;;;;3.50;2.60;;;24.10;57.40;;;;;;5091668;28;20296;-69
2024/03/30 09:59:05;;;;;;;2.05;1.85;;;24.00;57.10;;;;;;5089989;28;20196;-69
2024/03/30 10:01:32;;;;;;;1.90;1.80;;;24.10;57.50;;;;;;5098407;28;20237;-69
2024/03/30 10:04:00;;;;;;;2.72;2.40;;;24.00;57.20;;;;;;5091391;28;20548;-70
2024/03/30 10:06:30;;;;;;;2.63;2.15;;;24.00;56.60;;;;;;5092278;28;20536;-67
2024/03/30 10:09:02;;;;;;;3.45;2.20;;;23.90;57.00;;;;;;5099664;28;20219;-69
2024/03/30 10:11:31;;;;;;;5.03;2.42;;;24.10;57.10;;;;;;5082993;28;20644;-69
2024/03/30 10:14:04;;;;;;;3.13;2.30;;;24.10;56.60;;;;;;5109732;28;20290;-69
2024/03/30 10:16:31;;;;;;;5.28;2.42;;;24.10;56.30;;;;;;5078300;28;20578;-69
2024/03/30 10:18:58;;;;;;;2.78;1.88;;;24.10;55.90;;;;;;5104791;28;20649;-69
2024/03/30 10:21:27;;;;;;;2.45;1.80;;;24.10;56.60;;;;;;5086573;28;20226;-69
2024/03/30 10:23:55;;;;;;;2.55;2.10;;;24.20;56.30;;;;;;5092316;28;20243;-69
2024/03/30 10:26:25;;;;;;;7.43;2.67;;;24.40;56.70;;;;;;5098684;28;20237;-68
2024/03/30 10:28:51;;;;;;;4.10;2.42;;;24.50;56.00;;;;;;5093885;28;20189;-69
2024/03/30 10:31:18;;;;;;;2.30;2.10;;;24.50;55.80;;;;;;5102675;28;20211;-69
2024/03/30 10:33:46;;;;;;;3.70;2.60;;;24.60;57.00;;;;;;5075718;28;20204;-69
2024/03/30 10:36:13;;;;;;;2.53;2.33;;;24.70;56.10;;;;;;5094296;28;20208;-68
2024/03/30 10:38:40;;;;;;;2.88;2.03;;;24.70;56.30;;;;;;5092952;28;20248;-69
2024/03/30 10:41:07;;;;;;;5.47;2.75;;;24.80;55.80;;;;;;5097945;28;20196;-69
2024/03/30 10:43:34;;;;;;;4.72;2.53;;;24.80;55.00;;;;;;5070574;28;20196;-69
2024/03/30 10:46:01;;;;;;;3.83;2.97;;;24.80;55.00;;;;;;5071817;28;20188;-70
2024/03/30 10:48:29;;;;;;;2.72;2.50;;;24.70;54.60;;;;;;5103328;28;20204;-70
2024/03/30 10:50:57;;;;;;;2.53;2.33;;;24.60;54.70;;;;;;5082513;28;20559;-70
2024/03/30 10:53:23;;;;;;;2.45;2.25;;;24.60;55.10;;;;;;5099338;28;20204;-70
2024/03/30 10:55:53;;;;;;;4.95;3.03;;;24.70;55.40;;;;;;5098997;28;20219;-69
2024/03/30 10:58:19;;;;;;;3.00;2.60;;;24.80;55.00;;;;;;5090455;28;20664;-69
2024/03/30 11:00:47;;;;;;;2.92;2.60;;;24.70;54.70;;;;;;5088353;28;20258;-68
2024/03/30 11:03:16;;;;;;;2.72;2.40;;;24.80;55.10;;;;;;5090626;28;20698;-69
2024/03/30 11:05:44;;;;;;;3.28;2.50;;;24.90;55.30;;;;;;5092325;28;20195;-70
2024/03/30 11:08:11;;;;;;;2.50;2.30;;;25.00;55.00;;;;;;5099895;28;20188;-69
2024/03/30 11:10:38;;;;;;;3.15;2.90;;;25.00;54.80;;;;;;5098745;28;20191;-68
2024/03/30 11:13:06;;;;;;;2.47;2.28;;;25.00;54.10;;;;;;5089185;28;20647;-69
2024/03/30 11:15:40;;;;;;;2.50;2.30;;;24.90;54.40;;;;;;5093341;28;20212;-69
2024/03/30 11:18:12;;;;;;;2.58;2.00;;;24.80;54.50;;;;;;5085307;28;20196;-69
2024/03/30 11:20:46;;;;;;;2.63;2.10;;;24.70;54.50;;;;;;5101147;28;20681;-69
2024/03/30 11:23:25;;;;;;;1.92;1.73;;;24.70;54.70;;;;;;5075237;28;20273;-69
2024/03/30 11:26:03;;;;;;;3.53;2.05;;;24.60;54.70;;;;;;5098029;28;20215;-68
2024/03/30 11:28:40;;;;;;;2.58;2.10;;;24.50;54.50;;;;;;5092192;28;20193;-69
2024/03/30 11:31:17;;;;;;;2.05;1.85;;;24.40;54.80;;;;;;5093088;28;20629;-68
2024/03/30 11:33:50;;;;;;;2.40;2.00;;;24.20;55.00;;;;;;5086425;28;20757;-68
2024/03/30 11:36:23;;;;;;;2.80;1.83;;;24.00;55.10;;;;;;5099140;28;20683;-69
2024/03/30 11:38:57;;;;;;;1.95;1.75;;;23.80;55.30;;;;;;5092945;28;20192;-69
2024/03/30 11:41:25;;;;;;;3.67;2.22;;;23.70;55.60;;;;;;5101365;28;20616;-69
2024/03/30 11:43:58;;;;;;;2.10;1.90;;;23.60;55.70;;;;;;5101568;28;20231;-68
2024/03/30 11:46:27;;;;;;;2.08;1.88;;;23.40;55.90;;;;;;5087266;28;20192;-69
2024/03/30 11:48:54;;;;;;;1.85;1.75;;;23.20;56.00;;;;;;5106176;28;20545;-68
2024/03/30 11:51:22;;;;;;;3.80;3.22;;;23.10;56.30;;;;;;5100173;28;20259;-69
2024/03/30 11:53:48;;;;;;;3.03;2.75;;;23.00;56.00;;;;;;5099515;28;20207;-69
2024/03/30 11:56:16;;;;;;;3.88;2.88;;;22.90;56.20;;;;;;5108921;28;20208;-70
2024/03/30 11:58:43;;;;;;;2.70;2.47;;;22.80;56.30;;;;;;5089194;28;20197;-69
2024/03/30 12:01:12;;;;;;;2.45;1.98;;;22.80;56.60;;;;;;5092544;28;20199;-69
2024/03/30 12:03:40;;;;;;;3.10;2.80;;;22.80;56.80;;;;;;5099711;28;20253;-69
2024/03/30 12:06:07;;;;;;;4.18;2.58;;;22.80;56.80;;;;;;5080689;28;20189;-69
2024/03/30 12:08:41;;;;;;;2.83;2.60;;;22.80;56.80;;;;;;5092290;28;20188;-69
2024/03/30 12:11:09;;;;;;;3.92;2.42;;;22.90;56.90;;;;;;5076725;28;20282;-70
2024/03/30 12:13:38;;;;;;;2.80;2.50;;;23.00;56.90;;;;;;5083188;28;20200;-68
2024/03/30 12:16:06;;;;;;;3.22;2.53;;;23.10;56.80;;;;;;5091786;28;20513;-69
2024/03/30 12:18:35;;;;;;;5.68;3.15;;;23.20;56.70;;;;;;5084195;28;20200;-69
2024/03/30 12:21:02;;;;;;;6.28;3.40;;;23.20;56.40;;;;;;5099543;28;20698;-69
2024/03/30 12:23:29;;;;;;;3.72;2.67;;;23.10;55.80;;;;;;5065632;28;20228;-68
2024/03/30 12:25:59;;;;;;;3.28;2.63;;;23.00;55.90;;;;;;5079293;28;20185;-68
2024/03/30 12:28:27;;;;;;;2.40;2.20;;;22.90;56.20;;;;;;5089905;28;20208;-68
2024/03/30 12:30:56;;;;;;;2.20;2.00;;;22.80;56.40;;;;;;5092181;28;20621;-69
2024/03/30 12:33:22;;;;;;;5.05;2.55;;;22.80;56.60;;;;;;5098397;28;20238;-69
2024/03/30 12:35:51;;;;;;;3.90;3.05;;;22.70;56.50;;;;;;5098432;28;20210;-68
2024/03/30 12:38:19;;;;;;;2.78;2.25;;;22.60;56.70;;;;;;5098713;28;20188;-69
2024/03/30 12:40:47;;;;;;;2.28;2.05;;;22.50;56.80;;;;;;5097759;28;20561;-68
2024/03/30 12:43:14;;;;;;;2.33;2.00;;;22.40;57.00;;;;;;5109432;28;20328;-69
2024/03/30 12:45:42;;;;;;;2.63;2.15;;;22.30;57.20;;;;;;5102507;28;20644;-69
2024/03/30 12:48:09;;;;;;;2.50;2.15;;;22.30;57.40;;;;;;5107080;28;20196;-68
2024/03/30 12:50:37;;;;;;;2.28;1.90;;;22.40;57.60;;;;;;5095815;28;20275;-69
2024/03/30 12:53:05;;;;;;;1.90;1.80;;;22.50;57.80;;;;;;5108936;28;20199;-69